createdAt,value
2023-03-25T00:01:00.043Z,55.98
2023-03-25T00:03:31.108Z,56.44
2023-03-25T00:06:00.002Z,56.18
2023-03-25T00:08:27.870Z,56.33
2023-03-25T00:10:57.648Z,56.54
2023-03-25T00:13:26.108Z,56.55
2023-03-25T00:15:58.220Z,56.59
2023-03-25T00:18:33.533Z,56.67
2023-03-25T00:21:04.631Z,56.25
2023-03-25T00:23:32.793Z,56.34
2023-03-25T00:26:03.575Z,56.43
2023-03-25T00:28:32.389Z,56.43
2023-03-25T00:31:00.765Z,56.12
2023-03-25T00:33:30.258Z,56.40
2023-03-25T00:35:59.452Z,56.11
2023-03-25T00:38:33.389Z,55.93
2023-03-25T00:41:12.938Z,55.85
2023-03-25T00:43:40.976Z,55.86
2023-03-25T00:46:09.160Z,56.14
2023-03-25T00:48:38.936Z,56.13
2023-03-25T00:51:10.190Z,55.77
2023-03-25T00:53:39.360Z,55.67
2023-03-25T00:56:08.726Z,55.69
2023-03-25T00:58:36.985Z,55.57
2023-03-25T01:01:13.330Z,56.21
2023-03-25T01:03:44.185Z,56.14
2023-03-25T01:06:13.225Z,55.84
2023-03-25T01:08:42.410Z,56.31
2023-03-25T01:11:18.884Z,56.58
2023-03-25T01:13:47.509Z,56.74
2023-03-25T01:16:15.466Z,56.74
2023-03-25T01:18:44.950Z,56.61
2023-03-25T01:21:12.975Z,56.64
2023-03-25T01:23:42.024Z,56.75
2023-03-25T01:26:10.438Z,56.77
2023-03-25T01:28:40.672Z,57.15
2023-03-25T01:31:09.337Z,56.88
2023-03-25T01:33:37.683Z,56.85
2023-03-25T01:36:09.739Z,57.06
2023-03-25T01:38:38.139Z,56.99
2023-03-25T01:41:06.685Z,57.23
2023-03-25T01:43:34.928Z,56.90
2023-03-25T01:46:02.886Z,57.10
2023-03-25T01:48:35.776Z,57.13
2023-03-25T01:51:05.744Z,57.25
2023-03-25T01:53:35.128Z,57.28
2023-03-25T01:56:05.517Z,57.43
2023-03-25T01:58:33.634Z,57.04
2023-03-25T02:01:02.363Z,57.11
2023-03-25T02:03:31.289Z,56.85
2023-03-25T02:06:02.705Z,56.74
2023-03-25T02:08:32.582Z,56.95
2023-03-25T02:11:01.935Z,56.57
2023-03-25T02:13:32.828Z,56.87
2023-03-25T02:16:26.570Z,56.95
2023-03-25T02:19:05.041Z,56.68
2023-03-25T02:21:53.104Z,57.02
2023-03-25T02:24:35.246Z,56.98
2023-03-25T02:27:15.478Z,57.01
2023-03-25T02:29:58.990Z,56.98
2023-03-25T02:32:38.581Z,56.79
2023-03-25T02:35:17.219Z,56.67
2023-03-25T02:38:29.582Z,57.11
2023-03-25T02:40:58.952Z,56.74
2023-03-25T02:43:30.266Z,56.71
2023-03-25T02:46:01.755Z,56.50
2023-03-25T02:48:33.675Z,56.63
2023-03-25T02:51:08.289Z,56.83
2023-03-25T02:53:37.902Z,56.67
2023-03-25T02:56:09.507Z,56.91
2023-03-25T02:58:38.437Z,56.83
2023-03-25T03:01:10.324Z,57.21
2023-03-25T03:03:38.777Z,57.06
2023-03-25T03:06:07.725Z,57.06
2023-03-25T03:08:48.178Z,57.31
2023-03-25T03:11:20.261Z,57.16
2023-03-25T03:14:06.262Z,56.83
2023-03-25T03:16:40.927Z,57.36
2023-03-25T03:19:24.105Z,57.14
2023-03-25T03:21:56.062Z,57.35
2023-03-25T03:24:31.031Z,57.07
2023-03-25T03:27:02.831Z,56.95
2023-03-25T03:29:33.260Z,56.91
2023-03-25T03:32:05.821Z,56.71
2023-03-25T03:34:41.158Z,56.31
2023-03-25T03:37:09.197Z,56.85
2023-03-25T03:39:38.455Z,56.33
2023-03-25T03:42:09.174Z,56.22
2023-03-25T03:44:39.312Z,56.10
2023-03-25T03:47:08.697Z,56.83
2023-03-25T03:49:41.510Z,56.54
2023-03-25T03:52:11.790Z,56.34
2023-03-25T03:54:43.808Z,56.67
2023-03-25T03:57:15.329Z,56.94
2023-03-25T03:59:47.793Z,56.95
2023-03-25T04:02:19.013Z,56.86
2023-03-25T04:04:47.080Z,57.61
2023-03-25T04:07:16.468Z,57.46
2023-03-25T04:09:55.107Z,57.65
2023-03-25T04:12:26.527Z,57.59
2023-03-25T04:14:55.790Z,57.49
2023-03-25T04:17:24.110Z,57.59
2023-03-25T04:19:53.732Z,57.96
2023-03-25T04:22:22.396Z,57.76
2023-03-25T04:24:52.027Z,57.68
2023-03-25T04:27:23.266Z,57.60
2023-03-25T04:29:54.293Z,57.80
2023-03-25T04:32:22.435Z,57.75
2023-03-25T04:34:57.684Z,57.56
2023-03-25T04:37:25.623Z,57.60
2023-03-25T04:40:00.938Z,57.58
2023-03-25T04:42:33.244Z,57.69
2023-03-25T04:45:01.658Z,57.62
2023-03-25T04:47:30.276Z,57.50
2023-03-25T04:49:58.316Z,57.74
2023-03-25T04:52:27.210Z,57.68
2023-03-25T04:54:57.383Z,57.50
2023-03-25T04:57:26.419Z,57.39
2023-03-25T04:59:54.392Z,57.43
2023-03-25T05:02:24.131Z,57.24
2023-03-25T05:04:54.047Z,57.39
2023-03-25T05:07:22.146Z,57.44
2023-03-25T05:09:50.147Z,57.44
2023-03-25T05:12:19.438Z,57.20
2023-03-25T05:14:47.710Z,57.16
2023-03-25T05:17:15.705Z,57.24
2023-03-25T05:19:43.884Z,57.31
2023-03-25T05:22:13.398Z,57.50
2023-03-25T05:24:46.256Z,57.66
2023-03-25T05:27:20.122Z,58.05
2023-03-25T05:29:49.403Z,57.81
2023-03-25T05:32:18.390Z,57.83
2023-03-25T05:34:47.318Z,57.96
2023-03-25T05:37:17.886Z,57.56
2023-03-25T05:39:46.147Z,57.75
2023-03-25T05:42:16.545Z,57.90
2023-03-25T05:44:51.569Z,58.14
2023-03-25T05:47:23.596Z,57.81
2023-03-25T05:49:52.895Z,58.45
2023-03-25T05:52:24.436Z,58.76
2023-03-25T05:54:53.226Z,60.04
2023-03-25T05:57:21.157Z,60.15
2023-03-25T05:59:49.160Z,60.47
2023-03-25T06:02:17.821Z,61.72
2023-03-25T06:04:51.127Z,62.04
2023-03-25T06:07:20.849Z,61.69
2023-03-25T06:09:49.486Z,61.84
2023-03-25T06:12:19.944Z,61.63
2023-03-25T06:14:54.478Z,61.65
2023-03-25T06:17:24.587Z,61.42
2023-03-25T06:19:53.988Z,61.39
2023-03-25T06:22:22.764Z,61.03
2023-03-25T06:24:52.578Z,60.90
2023-03-25T06:27:21.803Z,60.74
2023-03-25T06:29:50.338Z,60.61
2023-03-25T06:32:18.314Z,60.40
2023-03-25T06:34:46.326Z,60.26
2023-03-25T06:37:15.689Z,60.20
2023-03-25T06:39:49.906Z,60.21
2023-03-25T06:42:23.656Z,60.00
2023-03-25T06:45:12.889Z,59.89
2023-03-25T06:47:58.714Z,59.95
2023-03-25T06:50:26.772Z,59.74
2023-03-25T06:52:56.034Z,59.59
2023-03-25T06:55:23.988Z,59.67
2023-03-25T06:57:53.001Z,59.40
2023-03-25T07:00:23.524Z,59.62
2023-03-25T07:02:51.873Z,59.40
2023-03-25T07:05:21.498Z,59.44
2023-03-25T07:07:49.570Z,59.31
2023-03-25T07:10:18.928Z,59.43
2023-03-25T07:12:46.840Z,59.71
2023-03-25T07:15:14.990Z,59.47
2023-03-25T07:17:49.135Z,60.00
2023-03-25T07:20:17.507Z,59.71
2023-03-25T07:22:45.762Z,60.01
2023-03-25T07:25:13.949Z,60.20
2023-03-25T07:27:44.292Z,60.25
2023-03-25T07:30:16.892Z,60.39
2023-03-25T07:32:45.619Z,60.44
2023-03-25T07:35:13.561Z,60.32
2023-03-25T07:37:41.637Z,60.25
2023-03-25T07:40:12.436Z,60.38
2023-03-25T07:42:40.507Z,60.29
2023-03-25T07:45:23.860Z,60.25
2023-03-25T07:47:53.884Z,60.02
2023-03-25T07:50:25.183Z,60.24
2023-03-25T07:52:54.657Z,59.97
2023-03-25T07:55:23.143Z,60.02
2023-03-25T07:57:51.155Z,59.86
2023-03-25T08:00:19.408Z,59.61
2023-03-25T08:02:49.170Z,59.77
2023-03-25T08:05:21.390Z,59.48
2023-03-25T08:07:49.621Z,59.46
2023-03-25T08:10:17.809Z,59.45
2023-03-25T08:12:45.753Z,59.14
2023-03-25T08:15:14.225Z,59.38
2023-03-25T08:17:42.243Z,58.99
2023-03-25T08:20:13.254Z,59.03
2023-03-25T08:22:41.385Z,58.66
2023-03-25T08:25:10.151Z,58.67
2023-03-25T08:27:38.229Z,58.30
2023-03-25T08:30:08.480Z,58.36
2023-03-25T08:32:36.515Z,58.26
2023-03-25T08:35:05.850Z,58.28
2023-03-25T08:37:35.532Z,58.22
2023-03-25T08:40:07.233Z,58.34
2023-03-25T08:42:35.650Z,58.47
2023-03-25T08:45:05.747Z,58.36
2023-03-25T08:47:33.981Z,58.59
2023-03-25T08:50:06.458Z,58.33
2023-03-25T08:52:46.341Z,58.65
2023-03-25T08:55:16.929Z,58.42
2023-03-25T08:57:47.907Z,58.27
2023-03-25T09:00:16.951Z,58.09
2023-03-25T09:02:47.441Z,58.51
2023-03-25T09:05:18.326Z,57.81
2023-03-25T09:07:47.820Z,58.14
2023-03-25T09:10:15.939Z,58.26
2023-03-25T09:12:44.930Z,57.86
2023-03-25T09:15:13.264Z,57.87
2023-03-25T09:17:42.879Z,57.47
2023-03-25T09:20:12.433Z,57.47
2023-03-25T09:22:43.679Z,57.39
2023-03-25T09:25:14.032Z,57.09
2023-03-25T09:27:49.459Z,57.09
2023-03-25T09:30:19.333Z,57.30
2023-03-25T09:32:47.434Z,57.33
2023-03-25T09:35:16.638Z,57.28
2023-03-25T09:37:44.822Z,57.05
2023-03-25T09:40:18.730Z,57.27
2023-03-25T09:42:54.178Z,57.02
2023-03-25T09:45:30.177Z,56.86
2023-03-25T09:48:01.279Z,56.93
2023-03-25T09:50:30.430Z,56.69
2023-03-25T09:53:00.020Z,56.31
2023-03-25T09:55:31.668Z,56.16
2023-03-25T09:58:03.903Z,55.64
2023-03-25T10:00:33.707Z,55.65
2023-03-25T10:03:10.775Z,55.33
2023-03-25T10:06:20.848Z,55.19
2023-03-25T10:08:55.887Z,55.16
2023-03-25T10:11:51.383Z,55.36
2023-03-25T10:14:21.802Z,57.17
2023-03-25T10:17:05.957Z,58.58
2023-03-25T10:19:44.313Z,59.51
2023-03-25T10:22:18.737Z,60.58
2023-03-25T10:24:47.759Z,60.74
2023-03-25T10:27:21.963Z,61.70
2023-03-25T10:29:51.774Z,61.60
2023-03-25T10:32:26.654Z,62.40
2023-03-25T10:34:56.251Z,62.44
2023-03-25T10:37:28.795Z,62.27
2023-03-25T10:39:58.357Z,62.67
2023-03-25T10:42:34.977Z,62.53
2023-03-25T10:45:03.006Z,62.50
2023-03-25T10:47:33.279Z,62.04
2023-03-25T10:50:01.565Z,61.23
2023-03-25T10:52:32.255Z,61.00
2023-03-25T10:55:00.426Z,60.44
2023-03-25T10:57:31.163Z,60.55
2023-03-25T11:00:06.402Z,60.31
2023-03-25T11:02:34.505Z,59.77
2023-03-25T11:05:05.026Z,59.56
2023-03-25T11:07:34.578Z,59.18
2023-03-25T11:10:20.450Z,58.99
2023-03-25T11:12:53.668Z,59.19
2023-03-25T11:15:22.964Z,58.79
2023-03-25T11:17:58.402Z,58.28
2023-03-25T11:20:29.303Z,58.02
2023-03-25T11:23:03.010Z,57.23
2023-03-25T11:25:32.167Z,56.92
2023-03-25T11:28:06.023Z,56.10
2023-03-25T11:30:35.758Z,55.67
2023-03-25T11:33:04.952Z,55.26
2023-03-25T11:35:34.750Z,54.88
2023-03-25T11:38:04.127Z,54.73
2023-03-25T11:40:34.522Z,53.94
2023-03-25T11:43:04.429Z,53.90
2023-03-25T11:45:35.725Z,53.00
2023-03-25T11:48:11.629Z,52.83
2023-03-25T11:50:39.667Z,52.63
2023-03-25T11:53:07.646Z,52.21
2023-03-25T11:55:41.343Z,51.95
2023-03-25T11:58:15.632Z,51.09
2023-03-25T12:00:47.576Z,50.92
2023-03-25T12:03:20.780Z,51.07
2023-03-25T12:05:58.437Z,51.03
2023-03-25T12:08:29.014Z,50.37
2023-03-25T12:11:01.725Z,50.45
2023-03-25T12:13:36.609Z,50.58
2023-03-25T12:16:13.670Z,50.60
2023-03-25T12:18:49.482Z,50.46
2023-03-25T12:21:25.060Z,50.29
2023-03-25T12:24:01.022Z,50.03
2023-03-25T12:26:31.343Z,50.09
2023-03-25T12:29:17.928Z,50.13
2023-03-25T12:31:54.697Z,49.93
2023-03-25T12:34:27.397Z,49.98
2023-03-25T12:36:59.992Z,49.60
2023-03-25T12:39:45.341Z,49.54
2023-03-25T12:42:25.658Z,49.38
2023-03-25T12:45:05.210Z,49.42
2023-03-25T12:47:36.167Z,48.73
2023-03-25T12:50:32.618Z,49.10
2023-03-25T12:53:19.725Z,48.97
2023-03-25T12:55:58.454Z,48.85
2023-03-25T12:58:38.880Z,48.93
2023-03-25T13:01:13.207Z,48.90
2023-03-25T13:03:48.910Z,48.53
2023-03-25T13:06:23.616Z,48.45
2023-03-25T13:08:54.152Z,48.50
2023-03-25T13:11:23.746Z,48.09
2023-03-25T13:13:52.820Z,48.04
2023-03-25T13:16:24.816Z,48.23
2023-03-25T13:18:56.249Z,48.23
2023-03-25T13:21:25.635Z,47.94
2023-03-25T13:23:55.986Z,47.74
2023-03-25T13:26:24.947Z,47.81
2023-03-25T13:28:56.422Z,47.67
2023-03-25T13:31:28.377Z,48.13
2023-03-25T13:33:59.323Z,48.11
2023-03-25T13:36:28.514Z,48.48
2023-03-25T13:38:58.064Z,48.56
2023-03-25T13:41:27.802Z,48.75
2023-03-25T13:44:01.634Z,49.40
2023-03-25T13:46:38.620Z,50.02
2023-03-25T13:49:08.038Z,50.68
2023-03-25T13:51:36.468Z,50.88
2023-03-25T13:54:07.071Z,51.31
2023-03-25T13:57:12.152Z,52.08
2023-03-25T14:00:15.513Z,52.68
2023-03-25T14:02:52.701Z,53.16
2023-03-25T14:05:56.357Z,53.35
2023-03-25T14:09:01.015Z,53.34
2023-03-25T14:11:29.163Z,53.90
2023-03-25T14:14:01.189Z,54.04
2023-03-25T14:16:31.562Z,53.86
2023-03-25T14:19:04.150Z,53.64
2023-03-25T14:21:41.139Z,53.41
2023-03-25T14:24:12.799Z,53.36
2023-03-25T14:26:44.915Z,53.01
2023-03-25T14:29:20.597Z,52.96
2023-03-25T14:32:04.080Z,52.61
2023-03-25T14:34:33.442Z,52.31
2023-03-25T14:37:27.676Z,52.30
2023-03-25T14:39:59.277Z,52.46
2023-03-25T14:42:30.013Z,51.98
2023-03-25T14:45:38.327Z,52.05
2023-03-25T14:48:22.974Z,52.31
2023-03-25T14:51:09.852Z,52.31
2023-03-25T14:53:39.162Z,51.60
2023-03-25T14:56:08.046Z,51.34
2023-03-25T14:58:38.414Z,50.96
2023-03-25T15:01:10.197Z,50.48
2023-03-25T15:03:39.967Z,50.16
2023-03-25T15:06:11.442Z,49.84
2023-03-25T15:08:42.860Z,48.92
2023-03-25T15:11:15.958Z,49.17
2023-03-25T15:13:46.656Z,48.23
2023-03-25T15:16:21.523Z,47.75
2023-03-25T15:19:01.004Z,47.43
2023-03-25T15:21:51.134Z,47.97
2023-03-25T15:24:20.627Z,48.64
2023-03-25T15:26:49.662Z,48.52
2023-03-25T15:29:52.418Z,49.01
2023-03-25T15:32:27.445Z,49.64
2023-03-25T15:35:16.686Z,50.33
2023-03-25T15:38:04.912Z,50.27
2023-03-25T15:40:36.219Z,50.40
2023-03-25T15:43:31.195Z,50.31
2023-03-25T15:46:36.552Z,50.42
2023-03-25T15:49:28.833Z,50.52
2023-03-25T15:52:04.732Z,50.92
2023-03-25T15:54:36.506Z,51.06
2023-03-25T15:57:09.224Z,51.31
2023-03-25T15:59:42.022Z,51.54
2023-03-25T16:02:16.617Z,51.46
2023-03-25T16:04:46.155Z,51.61
2023-03-25T16:07:15.351Z,51.84
2023-03-25T16:09:47.792Z,52.12
2023-03-25T16:12:22.378Z,52.51
2023-03-25T16:14:50.516Z,52.80
2023-03-25T16:17:18.664Z,52.89
2023-03-25T16:19:49.552Z,53.98
2023-03-25T16:22:29.609Z,54.52
2023-03-25T16:24:59.820Z,55.76
2023-03-25T16:27:31.443Z,56.22
2023-03-25T16:29:59.837Z,57.06
2023-03-25T16:32:32.309Z,57.61
2023-03-25T16:35:00.990Z,57.86
2023-03-25T16:37:28.948Z,58.51
2023-03-25T16:39:58.710Z,58.94
2023-03-25T16:42:27.897Z,59.38
2023-03-25T16:44:56.136Z,60.16
2023-03-25T16:47:24.300Z,60.35
2023-03-25T16:49:55.493Z,60.51
2023-03-25T16:52:26.931Z,60.57
2023-03-25T16:55:15.259Z,60.68
2023-03-25T16:57:43.251Z,61.05
2023-03-25T17:00:19.955Z,61.00
2023-03-25T17:02:50.170Z,61.24
2023-03-25T17:05:19.841Z,61.64
2023-03-25T17:07:48.583Z,61.52
2023-03-25T17:10:22.606Z,61.28
2023-03-25T17:12:55.397Z,60.85
2023-03-25T17:15:23.822Z,60.62
2023-03-25T17:17:53.856Z,60.50
2023-03-25T17:20:23.286Z,60.37
2023-03-25T17:23:03.196Z,60.24
2023-03-25T17:25:34.981Z,60.21
2023-03-25T17:28:08.478Z,59.95
2023-03-25T17:30:43.585Z,59.95
2023-03-25T17:33:13.174Z,59.74
2023-03-25T17:35:41.570Z,60.05
2023-03-25T17:38:14.959Z,60.22
2023-03-25T17:40:44.310Z,60.44
2023-03-25T17:43:20.871Z,60.61
2023-03-25T17:45:48.794Z,60.68
2023-03-25T17:48:17.579Z,60.76
2023-03-25T17:50:53.122Z,60.68
2023-03-25T17:53:21.249Z,60.65
2023-03-25T17:55:50.637Z,60.75
2023-03-25T17:58:19.031Z,60.63
2023-03-25T18:00:47.677Z,60.75
2023-03-25T18:03:17.708Z,60.86
2023-03-25T18:05:50.909Z,61.03
2023-03-25T18:08:23.520Z,61.19
2023-03-25T18:10:55.175Z,61.38
2023-03-25T18:13:25.045Z,61.30
2023-03-25T18:15:52.951Z,61.40
2023-03-25T18:18:24.227Z,61.49
2023-03-25T18:20:52.657Z,61.41
2023-03-25T18:23:21.207Z,61.23
2023-03-25T18:25:49.212Z,61.22
2023-03-25T18:28:18.791Z,61.26
2023-03-25T18:30:49.230Z,61.10
2023-03-25T18:33:18.594Z,61.01
2023-03-25T18:35:46.780Z,60.95
2023-03-25T18:38:19.119Z,61.02
2023-03-25T18:40:48.496Z,60.99
2023-03-25T18:43:18.165Z,61.12
2023-03-25T18:45:46.178Z,60.93
2023-03-25T18:48:14.363Z,60.97
2023-03-25T18:50:46.245Z,60.99
2023-03-25T18:53:16.186Z,61.02
2023-03-25T18:55:45.983Z,61.00
2023-03-25T18:58:19.677Z,60.99
2023-03-25T19:00:48.287Z,60.92
2023-03-25T19:03:16.774Z,60.83
2023-03-25T19:05:45.173Z,60.92
2023-03-25T19:08:16.590Z,60.92
2023-03-25T19:10:44.746Z,61.13
2023-03-25T19:13:12.720Z,60.85
2023-03-25T19:15:42.904Z,61.01
2023-03-25T19:18:12.361Z,61.03
2023-03-25T19:20:42.758Z,60.97
2023-03-25T19:23:11.972Z,60.87
2023-03-25T19:25:41.529Z,60.60
2023-03-25T19:28:09.997Z,60.82
2023-03-25T19:30:38.164Z,60.88
2023-03-25T19:33:07.749Z,60.91
2023-03-25T19:35:35.736Z,60.68
2023-03-25T19:38:04.830Z,60.75
2023-03-25T19:40:34.019Z,60.86
2023-03-25T19:43:02.532Z,60.71
2023-03-25T19:45:31.246Z,60.67
2023-03-25T19:47:59.568Z,60.75
2023-03-25T19:50:30.502Z,60.61
2023-03-25T19:52:58.822Z,60.68
2023-03-25T19:55:27.184Z,60.54
2023-03-25T19:57:55.687Z,60.32
2023-03-25T20:00:26.092Z,60.46
2023-03-25T20:02:54.922Z,60.39
2023-03-25T20:05:25.013Z,60.46
2023-03-25T20:07:54.876Z,60.44
2023-03-25T20:10:23.981Z,60.41
2023-03-25T20:12:52.026Z,59.85
2023-03-25T20:15:20.189Z,60.29
2023-03-25T20:17:49.490Z,60.18
2023-03-25T20:20:17.460Z,59.98
2023-03-25T20:22:46.584Z,59.91
2023-03-25T20:25:17.581Z,60.07
2023-03-25T20:27:45.447Z,59.92
2023-03-25T20:30:15.098Z,60.02
2023-03-25T20:32:44.345Z,59.86
2023-03-25T20:35:15.611Z,59.95
2023-03-25T20:37:43.725Z,59.77
2023-03-25T20:40:15.437Z,59.69
2023-03-25T20:42:45.695Z,59.76
2023-03-25T20:45:14.736Z,59.48
2023-03-25T20:47:42.664Z,59.51
2023-03-25T20:50:11.205Z,59.48
2023-03-25T20:52:39.381Z,59.30
2023-03-25T20:55:09.876Z,59.35
2023-03-25T20:57:38.237Z,59.39
2023-03-25T21:00:09.121Z,59.42
2023-03-25T21:02:37.303Z,59.57
2023-03-25T21:05:05.708Z,59.40
2023-03-25T21:07:35.227Z,59.60
2023-03-25T21:10:03.536Z,59.68
2023-03-25T21:12:42.594Z,59.65
2023-03-25T21:15:14.712Z,59.71
2023-03-25T21:17:43.328Z,59.65
2023-03-25T21:20:12.645Z,59.90
2023-03-25T21:22:42.931Z,60.11
2023-03-25T21:25:11.639Z,60.06
2023-03-25T21:27:40.191Z,60.12
2023-03-25T21:30:09.460Z,60.17
2023-03-25T21:32:39.159Z,60.15
2023-03-25T21:35:08.018Z,60.12
2023-03-25T21:37:38.481Z,60.25
2023-03-25T21:40:10.320Z,60.15
2023-03-25T21:42:39.269Z,60.44
2023-03-25T21:45:08.767Z,60.40
2023-03-25T21:47:36.832Z,60.28
2023-03-25T21:50:09.690Z,60.47
2023-03-25T21:52:38.312Z,60.53
2023-03-25T21:55:07.303Z,60.64
2023-03-25T21:57:39.974Z,60.51
2023-03-25T22:00:10.421Z,60.51
2023-03-25T22:02:43.405Z,60.53
2023-03-25T22:05:13.214Z,60.57
2023-03-25T22:07:41.476Z,60.64
2023-03-25T22:10:10.732Z,60.39
2023-03-25T22:12:38.792Z,60.65
2023-03-25T22:15:08.046Z,60.67
2023-03-25T22:17:36.323Z,60.67
2023-03-25T22:20:06.109Z,60.73
2023-03-25T22:22:35.529Z,60.64
2023-03-25T22:25:04.140Z,60.62
2023-03-25T22:27:32.154Z,60.91
2023-03-25T22:30:01.350Z,60.78
2023-03-25T22:32:29.504Z,61.06
2023-03-25T22:34:57.454Z,60.93
2023-03-25T22:37:25.450Z,60.85
2023-03-25T22:39:54.707Z,61.04
2023-03-25T22:42:22.654Z,61.25
2023-03-25T22:44:50.522Z,61.49
2023-03-25T22:47:18.430Z,61.44
2023-03-25T22:49:46.411Z,61.15
2023-03-25T22:52:14.377Z,61.64
2023-03-25T22:54:42.242Z,61.88
2023-03-25T22:57:11.561Z,61.92
2023-03-25T22:59:39.460Z,62.48
2023-03-25T23:02:08.494Z,62.31
2023-03-25T23:04:36.390Z,62.59
2023-03-25T23:07:08.262Z,62.77
2023-03-25T23:09:42.364Z,62.72
2023-03-25T23:12:12.386Z,62.41
2023-03-25T23:14:40.550Z,62.76
2023-03-25T23:17:08.481Z,62.50
2023-03-25T23:19:36.504Z,62.29
2023-03-25T23:22:04.935Z,62.21
2023-03-25T23:24:35.955Z,62.19
2023-03-25T23:27:04.134Z,61.94
2023-03-25T23:29:35.664Z,62.31
2023-03-25T23:32:03.730Z,62.21
2023-03-25T23:34:31.749Z,61.95
2023-03-25T23:37:00.255Z,62.10
2023-03-25T23:39:28.209Z,61.74
2023-03-25T23:41:56.331Z,61.17
2023-03-25T23:44:24.212Z,61.23
2023-03-25T23:46:53.687Z,61.50
2023-03-25T23:49:21.669Z,61.63
2023-03-25T23:51:51.027Z,61.42
2023-03-25T23:54:19.038Z,61.12
2023-03-25T23:56:47.028Z,61.00
2023-03-25T23:59:14.923Z,61.19
